Warda, Texas
Current Conditions -  °F | °C
As of 8:35 PM on Wednesday 17 Dec 2014 (Local Time) from KGYB Reporting Station
Scattered Clouds Scattered Clouds  
Wind Chill: 57°   Ceiling: Unl
Heat Index: 57°   Visibility: 10mi
Dew Point: 54°   Wind: 6mph
Humidity: 88%   Direction: 90°E
Pressure: 30.11"   Gusts: NA
Location:  30.06°N, 96.91°W
Report Text: KGYB 180235Z AUTO 09005KT 10SM SCT085 14/12 A3011 RMK AO2 T01400120
Loading
Personal Weather Stations






























Interactive Weather Map New forecast layout! Learn more

10-Day Weather Forecast

Advertisements
Track Severe Weather on mobile